Time;durP1;ratioP1;P1;durP2;ratioP2;P2;SDS_P1;SDS_P2;PMS_P1;PMS_P2;Temp;Humidity;BMP_temperature;BMP_pressure;BME280_temperature;BME280_humidity;BME280_pressure;Samples;Min_cycle;Max_cycle;Signal;HPM_P1;HPM_P2
2022/08/17 00:01:55;;;;;;;;;;;;;;;;;;5073086;28;1577;-73
2022/08/17 00:04:21;;;;;;;;;;;;;;;;;;5091594;28;1324;-73
2022/08/17 00:06:48;;;;;;;;;;;;;;;;;;5091247;28;1071;-73
2022/08/17 00:09:14;;;;;;;;;;;;;;;;;;5091336;28;1068;-73
2022/08/17 00:11:41;;;;;;;;;;;;;;;;;;5091058;28;1106;-73
2022/08/17 00:14:10;;;;;;;;;;;;;;;;;;5090966;28;1321;-72
2022/08/17 00:16:38;;;;;;;;;;;;;;;;;;5091005;28;1911;-73
2022/08/17 00:19:05;;;;;;;;;;;;;;;;;;5073120;28;1350;-73
2022/08/17 00:21:32;;;;;;;;;;;;;;;;;;5081632;28;1538;-73
2022/08/17 00:23:58;;;;;;;;;;;;;;;;;;5070747;28;1312;-73
2022/08/17 00:26:25;;;;;;;;;;;;;;;;;;5071065;28;1123;-73
2022/08/17 00:28:51;;;;;;;;;;;;;;;;;;5070946;28;1207;-73
2022/08/17 00:31:19;;;;;;;;;;;;;;;;;;5070729;28;706;-73
2022/08/17 00:33:45;;;;;;;;;;;;;;;;;;5070811;28;1405;-73
2022/08/17 00:36:11;;;;;;;;;;;;;;;;;;5070652;28;1914;-73
2022/08/17 00:38:38;;;;;;;;;;;;;;;;;;5070617;28;1127;-73
2022/08/17 00:41:05;;;;;;;;;;;;;;;;;;5070455;28;1134;-73
2022/08/17 00:43:32;;;;;;;;;;;;;;;;;;5052147;28;1348;-73
2022/08/17 00:45:59;;;;;;;;;;;;;;;;;;5070597;28;1067;-73
2022/08/17 00:48:27;;;;;;;;;;;;;;;;;;5070759;28;858;-73
2022/08/17 00:50:56;;;;;;;;;;;;;;;;;;5070444;28;1040;-73
2022/08/17 00:53:23;;;;;;;;;;;;;;;;;;5070315;28;1075;-73
2022/08/17 00:55:49;;;;;;;;;;;;;;;;;;5070445;28;1910;-72
2022/08/17 00:58:15;;;;;;;;;;;;;;;;;;5070631;28;977;-72
2022/08/17 01:00:42;;;;;;;;;;;;;;;;;;5070428;28;1079;-73
2022/08/17 01:03:10;;;;;;;;;;;;;;;;;;5054953;28;1188;-73
2022/08/17 01:05:38;;;;;;;;;;;;;;;;;;5056410;28;1420;-73
2022/08/17 01:08:05;;;;;;;;;;;;;;;;;;5074259;28;1022;-73
2022/08/17 01:10:34;;;;;;;;;;;;;;;;;;5074718;28;996;-73
2022/08/17 01:13:01;;;;;;;;;;;;;;;;;;5073935;28;1087;-73
2022/08/17 01:15:28;;;;;;;;;;;;;;;;;;5074050;28;1969;-73
2022/08/17 01:17:54;;;;;;;;;;;;;;;;;;5074170;28;1115;-72
2022/08/17 01:20:20;;;;;;;;;;;;;;;;;;5073997;28;793;-73
2022/08/17 01:22:48;;;;;;;;;;;;;;;;;;5073915;28;936;-73
2022/08/17 01:25:14;;;;;;;;;;;;;;;;;;5073908;28;1410;-73
2022/08/17 01:27:40;;;;;;;;;;;;;;;;;;5056242;28;1171;-73
2022/08/17 01:30:08;;;;;;;;;;;;;;;;;;5073875;28;1137;-73
2022/08/17 01:32:34;;;;;;;;;;;;;;;;;;5073606;28;1119;-73
2022/08/17 01:35:00;;;;;;;;;;;;;;;;;;5073772;28;1408;-73
2022/08/17 01:37:28;;;;;;;;;;;;;;;;;;5073565;28;1997;-73
2022/08/17 01:39:56;;;;;;;;;;;;;;;;;;5073848;28;795;-73
2022/08/17 01:42:23;;;;;;;;;;;;;;;;;;5073534;28;1004;-72
2022/08/17 01:44:49;;;;;;;;;;;;;;;;;;5073508;28;1315;-73
2022/08/17 01:47:15;;;;;;;;;;;;;;;;;;5055784;28;1148;-73
2022/08/17 01:49:42;;;;;;;;;;;;;;;;;;5073629;28;1067;-72
2022/08/17 01:52:08;;;;;;;;;;;;;;;;;;5073337;28;956;-73
2022/08/17 01:54:35;;;;;;;;;;;;;;;;;;5073326;28;1294;-73
2022/08/17 01:57:02;;;;;;;;;;;;;;;;;;5055308;28;1980;-73
2022/08/17 01:59:29;;;;;;;;;;;;;;;;;;5055592;28;1142;-73
2022/08/17 02:01:55;;;;;;;;;;;;;;;;;;5073119;28;949;-73
2022/08/17 02:04:21;;;;;;;;;;;;;;;;;;5055576;28;1380;-73
2022/08/17 02:06:47;;;;;;;;;;;;;;;;;;5073086;28;969;-73
2022/08/17 02:09:14;;;;;;;;;;;;;;;;;;5073435;28;1151;-73
2022/08/17 02:11:40;;;;;;;;;;;;;;;;;;5072636;28;782;-73
2022/08/17 02:14:08;;;;;;;;;;;;;;;;;;5071683;28;1309;-72
2022/08/17 02:16:35;;;;;;;;;;;;;;;;;;5072899;28;1918;-73
2022/08/17 02:19:01;;;;;;;;;;;;;;;;;;5073279;28;1087;-73
2022/08/17 02:21:28;;;;;;;;;;;;;;;;;;5054624;28;1358;-73
2022/08/17 02:23:54;;;;;;;;;;;;;;;;;;5072928;28;1304;-73
2022/08/17 02:26:20;;;;;;;;;;;;;;;;;;5073159;28;1118;-73
2022/08/17 02:28:46;;;;;;;;;;;;;;;;;;5075103;28;1542;-74
2022/08/17 02:31:14;;;;;;;;;;;;;;;;;;5072865;28;1083;-72
2022/08/17 02:33:40;;;;;;;;;;;;;;;;;;5073064;28;1376;-72
2022/08/17 02:36:07;;;;;;;;;;;;;;;;;;5072943;28;1910;-73
2022/08/17 02:38:33;;;;;;;;;;;;;;;;;;5072532;28;957;-74
2022/08/17 02:41:00;;;;;;;;;;;;;;;;;;5072676;28;945;-73
2022/08/17 02:43:27;;;;;;;;;;;;;;;;;;5072537;28;833;-73
2022/08/17 02:45:54;;;;;;;;;;;;;;;;;;5072203;28;700;-73
2022/08/17 02:48:21;;;;;;;;;;;;;;;;;;5072395;28;1087;-73
2022/08/17 02:50:48;;;;;;;;;;;;;;;;;;5072288;28;1126;-72
2022/08/17 02:53:14;;;;;;;;;;;;;;;;;;5072034;28;1139;-72
2022/08/17 02:55:41;;;;;;;;;;;;;;;;;;5072211;28;1978;-72
2022/08/17 02:58:07;;;;;;;;;;;;;;;;;;5072338;28;1094;-73
2022/08/17 03:00:34;;;;;;;;;;;;;;;;;;5054216;28;1414;-73
2022/08/17 03:03:01;;;;;;;;;;;;;;;;;;5071822;28;1063;-73
2022/08/17 03:05:29;;;;;;;;;;;;;;;;;;5072060;28;1400;-72
2022/08/17 03:07:56;;;;;;;;;;;;;;;;;;5071864;28;1115;-73
2022/08/17 03:10:23;;;;;;;;;;;;;;;;;;5072024;28;1126;-73
2022/08/17 03:12:50;;;;;;;;;;;;;;;;;;5071644;28;1091;-73
2022/08/17 03:15:17;;;;;;;;;;;;;;;;;;5071795;28;1302;-73
2022/08/17 03:17:43;;;;;;;;;;;;;;;;;;5054076;28;1918;-73
2022/08/17 03:20:10;;;;;;;;;;;;;;;;;;5071650;28;674;-73
2022/08/17 03:22:38;;;;;;;;;;;;;;;;;;5071477;28;874;-72
2022/08/17 03:25:05;;;;;;;;;;;;;;;;;;5071171;28;1316;-72
2022/08/17 03:27:31;;;;;;;;;;;;;;;;;;5071878;28;806;-73
2022/08/17 03:29:57;;;;;;;;;;;;;;;;;;5071458;28;1118;-72
2022/08/17 03:32:23;;;;;;;;;;;;;;;;;;5072655;28;1422;-72
2022/08/17 03:34:50;;;;;;;;;;;;;;;;;;5085821;28;1419;-74
2022/08/17 03:37:16;;;;;;;;;;;;;;;;;;5103276;28;1914;-74
2022/08/17 03:39:43;;;;;;;;;;;;;;;;;;5092423;28;1323;-74
2022/08/17 03:42:13;;;;;;;;;;;;;;;;;;5076008;28;1277;-75
2022/08/17 03:44:39;;;;;;;;;;;;;;;;;;5075069;28;1468;-73
2022/08/17 03:58:02;;;;;;;;;;;;;;;;;;5093511;28;1985;-74
2022/08/17 04:00:28;;;;;;;;;;;;;;;;;;5091550;28;1071;-75
2022/08/17 04:02:54;;;;;;;;;;;;;;;;;;5096242;28;1325;-74
2022/08/17 04:05:21;;;;;;;;;;;;;;;;;;5095306;28;1319;-73
2022/08/17 04:07:47;;;;;;;;;;;;;;;;;;5093553;28;1146;-74
2022/08/17 04:10:13;;;;;;;;;;;;;;;;;;5111602;28;1134;-73
2022/08/17 04:12:45;;;;;;;;;;;;;;;;;;5095907;28;1470;-74
2022/08/17 04:15:12;;;;;;;;;;;;;;;;;;5100556;28;1498;-73
2022/08/17 04:17:38;;;;;;;;;;;;;;;;;;5111573;28;1906;-73
2022/08/17 04:20:04;;;;;;;;;;;;;;;;;;5104160;28;1544;-73
2022/08/17 04:22:31;;;;;;;;;;;;;;;;;;5095114;28;1430;-74
2022/08/17 04:24:57;;;;;;;;;;;;;;;;;;5102808;28;1404;-73
2022/08/17 04:27:23;;;;;;;;;;;;;;;;;;5087041;28;1510;-73
2022/08/17 04:29:51;;;;;;;;;;;;;;;;;;5070780;28;885;-73
2022/08/17 04:32:17;;;;;;;;;;;;;;;;;;5070544;28;1541;-73
2022/08/17 04:34:43;;;;;;;;;;;;;;;;;;5070615;28;1309;-73
2022/08/17 04:37:09;;;;;;;;;;;;;;;;;;5054181;28;1922;-73
2022/08/17 04:39:35;;;;;;;;;;;;;;;;;;5074919;28;1051;-73
2022/08/17 04:42:08;;;;;;;;;;;;;;;;;;5074644;28;1071;-73
2022/08/17 04:44:34;;;;;;;;;;;;;;;;;;5057083;28;1337;-73
2022/08/17 04:47:01;;;;;;;;;;;;;;;;;;5082388;28;1213;-73
2022/08/17 04:49:27;;;;;;;;;;;;;;;;;;5066717;28;1318;-73
2022/08/17 04:51:54;;;;;;;;;;;;;;;;;;5084305;28;1321;-73
2022/08/17 04:54:21;;;;;;;;;;;;;;;;;;5083718;28;1383;-73
2022/08/17 04:56:47;;;;;;;;;;;;;;;;;;5085985;28;1975;-73
2022/08/17 04:59:14;;;;;;;;;;;;;;;;;;5094818;28;1130;-74
2022/08/17 05:01:40;;;;;;;;;;;;;;;;;;5094670;28;794;-74
2022/08/17 05:04:09;;;;;;;;;;;;;;;;;;5094671;28;1339;-74
2022/08/17 05:06:35;;;;;;;;;;;;;;;;;;5094763;28;1147;-73
2022/08/17 05:09:01;;;;;;;;;;;;;;;;;;5094524;28;976;-73
2022/08/17 05:11:28;;;;;;;;;;;;;;;;;;5094107;28;1114;-73
2022/08/17 05:13:54;;;;;;;;;;;;;;;;;;5076182;28;1404;-73
2022/08/17 05:16:21;;;;;;;;;;;;;;;;;;5094536;28;1976;-74
2022/08/17 05:18:47;;;;;;;;;;;;;;;;;;5094638;28;691;-74
2022/08/17 05:21:15;;;;;;;;;;;;;;;;;;5094277;28;1008;-74
2022/08/17 05:23:41;;;;;;;;;;;;;;;;;;5076204;28;1334;-73
2022/08/17 05:26:08;;;;;;;;;;;;;;;;;;5094217;28;972;-73
2022/08/17 05:28:35;;;;;;;;;;;;;;;;;;5094065;28;1071;-74
2022/08/17 05:31:02;;;;;;;;;;;;;;;;;;5094198;28;1118;-73
2022/08/17 05:33:29;;;;;;;;;;;;;;;;;;5094376;28;798;-73
2022/08/17 05:35:57;;;;;;;;;;;;;;;;;;5094135;28;983;-73
2022/08/17 05:38:25;;;;;;;;;;;;;;;;;;5093964;28;2020;-73
2022/08/17 05:40:51;;;;;;;;;;;;;;;;;;5094021;28;1123;-73
2022/08/17 05:43:18;;;;;;;;;;;;;;;;;;5093928;28;1079;-73
2022/08/17 05:45:45;;;;;;;;;;;;;;;;;;5093459;28;1399;-73
2022/08/17 05:48:11;;;;;;;;;;;;;;;;;;5093659;28;1079;-73
2022/08/17 05:50:40;;;;;;;;;;;;;;;;;;5093983;28;1126;-73
2022/08/17 05:53:09;;;;;;;;;;;;;;;;;;5093438;28;1075;-73
2022/08/17 05:55:38;;;;;;;;;;;;;;;;;;5093607;28;1434;-73
2022/08/17 05:58:07;;;;;;;;;;;;;;;;;;5093849;28;1930;-73
2022/08/17 06:00:35;;;;;;;;;;;;;;;;;;5093603;28;850;-73
2022/08/17 06:03:10;;;;;;;;;;;;;;;;;;5092876;28;865;-73
2022/08/17 06:05:43;;;;;;;;;;;;;;;;;;5093569;28;1326;-74
2022/08/17 06:08:10;;;;;;;;;;;;;;;;;;5093649;28;1130;-74
2022/08/17 06:10:39;;;;;;;;;;;;;;;;;;5093470;28;1115;-74
2022/08/17 06:13:08;;;;;;;;;;;;;;;;;;5092885;28;1075;-72
2022/08/17 06:15:36;;;;;;;;;;;;;;;;;;5093306;28;1398;-74
2022/08/17 06:18:03;;;;;;;;;;;;;;;;;;5093149;28;1977;-73
2022/08/17 06:20:32;;;;;;;;;;;;;;;;;;5093254;28;1123;-74
2022/08/17 06:23:01;;;;;;;;;;;;;;;;;;5092682;28;1079;-74
2022/08/17 06:25:29;;;;;;;;;;;;;;;;;;5074832;28;1400;-74
2022/08/17 06:27:57;;;;;;;;;;;;;;;;;;5074772;28;1170;-74
2022/08/17 06:30:24;;;;;;;;;;;;;;;;;;5083864;28;1251;-74
2022/08/17 06:32:50;;;;;;;;;;;;;;;;;;5089017;28;1554;-74
2022/08/17 06:35:18;;;;;;;;;;;;;;;;;;5074632;28;1391;-72
2022/08/17 06:37:48;;;;;;;;;;;;;;;;;;5092831;28;1914;-74
2022/08/17 06:40:17;;;;;;;;;;;;;;;;;;5074616;28;1275;-74
2022/08/17 06:42:46;;;;;;;;;;;;;;;;;;5092566;28;694;-74
2022/08/17 06:45:15;;;;;;;;;;;;;;;;;;5092621;28;1405;-74
2022/08/17 06:47:42;;;;;;;;;;;;;;;;;;5092865;28;1067;-73
2022/08/17 06:50:13;;;;;;;;;;;;;;;;;;5074102;28;1238;-74
2022/08/17 06:52:44;;;;;;;;;;;;;;;;;;5092377;28;976;-75
2022/08/17 06:55:11;;;;;;;;;;;;;;;;;;5075358;28;1714;-74
2022/08/17 06:57:38;;;;;;;;;;;;;;;;;;5072432;28;1975;-75
2022/08/17 07:00:06;;;;;;;;;;;;;;;;;;5070912;28;794;-74
2022/08/17 07:02:40;;;;;;;;;;;;;;;;;;5071391;28;1023;-73
2022/08/17 07:05:06;;;;;;;;;;;;;;;;;;5071333;28;1329;-73
2022/08/17 07:10:16;;;;;;;;;;;;;;;;;;5071682;28;1044;-74
2022/08/17 07:12:43;;;;;;;;;;;;;;;;;;5071345;28;1147;-73
2022/08/17 07:15:11;;;;;;;;;;;;;;;;;;5069841;28;1317;-74
2022/08/17 07:17:38;;;;;;;;;;;;;;;;;;5069954;28;2027;-74
2022/08/17 07:20:07;;;;;;;;;;;;;;;;;;5069828;28;1232;-74
2022/08/17 07:22:34;;;;;;;;;;;;;;;;;;5071226;28;921;-73
2022/08/17 07:25:00;;;;;;;;;;;;;;;;;;5071153;28;1361;-73
2022/08/17 07:27:27;;;;;;;;;;;;;;;;;;5071021;28;1075;-73
2022/08/17 07:29:55;;;;;;;;;;;;;;;;;;5070908;28;1067;-73
2022/08/17 07:32:23;;;;;;;;;;;;;;;;;;5071297;28;1064;-74
2022/08/17 07:35:00;;;;;;;;;;;;;;;;;;5071030;28;1301;-73
2022/08/17 07:37:27;;;;;;;;;;;;;;;;;;5078755;28;1922;-73
2022/08/17 07:39:54;;;;;;;;;;;;;;;;;;5080294;28;1267;-74
2022/08/17 07:42:20;;;;;;;;;;;;;;;;;;5076647;28;1315;-74
2022/08/17 07:44:47;;;;;;;;;;;;;;;;;;5052828;28;1403;-74
2022/08/17 07:50:01;;;;;;;;;;;;;;;;;;5053457;28;1164;-75
2022/08/17 07:52:28;;;;;;;;;;;;;;;;;;5072691;28;1230;-75
2022/08/17 07:54:55;;;;;;;;;;;;;;;;;;5090633;28;1298;-74
2022/08/17 07:57:30;;;;;;;;;;;;;;;;;;5090079;28;1922;-75
2022/08/17 08:00:08;;;;;;;;;;;;;;;;;;5072704;28;1330;-75
2022/08/17 08:02:39;;;;;;;;;;;;;;;;;;5090701;28;678;-75
2022/08/17 08:05:11;;;;;;;;;;;;;;;;;;5090592;28;1407;-75
2022/08/17 08:07:38;;;;;;;;;;;;;;;;;;5091065;28;1067;-74
2022/08/17 08:10:07;;;;;;;;;;;;;;;;;;5090661;28;1055;-75
2022/08/17 08:12:34;;;;;;;;;;;;;;;;;;5090757;28;956;-75
2022/08/17 08:15:02;;;;;;;;;;;;;;;;;;5089347;28;2197;-75
2022/08/17 08:17:30;;;;;;;;;;;;;;;;;;5090314;28;1914;-75
2022/08/17 08:19:57;;;;;;;;;;;;;;;;;;5090510;28;1082;-75
2022/08/17 08:22:28;;;;;;;;;;;;;;;;;;5090494;28;914;-75
2022/08/17 08:24:58;;;;;;;;;;;;;;;;;;5090443;28;1408;-75
2022/08/17 08:27:27;;;;;;;;;;;;;;;;;;5062350;28;1523;-75
2022/08/17 08:29:55;;;;;;;;;;;;;;;;;;5052356;28;1274;-75
2022/08/17 08:32:23;;;;;;;;;;;;;;;;;;5070201;28;945;-76
2022/08/17 08:34:52;;;;;;;;;;;;;;;;;;5070368;28;1387;-76
2022/08/17 08:37:20;;;;;;;;;;;;;;;;;;5069923;28;1122;-76
2022/08/17 08:39:51;;;;;;;;;;;;;;;;;;5070269;28;881;-76
2022/08/17 08:42:18;;;;;;;;;;;;;;;;;;5069909;28;1071;-76
2022/08/17 08:44:47;;;;;;;;;;;;;;;;;;5072567;28;1319;-76
2022/08/17 08:47:17;;;;;;;;;;;;;;;;;;5070174;28;1131;-75
2022/08/17 08:49:46;;;;;;;;;;;;;;;;;;5076837;28;1135;-75
2022/08/17 08:52:14;;;;;;;;;;;;;;;;;;5071273;28;1619;-75
2022/08/17 08:54:42;;;;;;;;;;;;;;;;;;5061228;28;1412;-75
2022/08/17 08:57:16;;;;;;;;;;;;;;;;;;5065226;28;1251;-75
2022/08/17 08:59:47;;;;;;;;;;;;;;;;;;5072285;28;1975;-75
2022/08/17 09:02:15;;;;;;;;;;;;;;;;;;5090297;28;797;-76
2022/08/17 09:04:45;;;;;;;;;;;;;;;;;;5090483;28;1324;-75
2022/08/17 09:07:12;;;;;;;;;;;;;;;;;;5089931;28;1071;-76
2022/08/17 09:09:42;;;;;;;;;;;;;;;;;;5072450;28;1416;-75
2022/08/17 09:12:10;;;;;;;;;;;;;;;;;;5071598;28;1095;-76
2022/08/17 09:14:39;;;;;;;;;;;;;;;;;;5080718;28;1369;-76
2022/08/17 09:17:06;;;;;;;;;;;;;;;;;;5071577;28;1051;-75
2022/08/17 09:19:34;;;;;;;;;;;;;;;;;;5089925;28;1979;-76
2022/08/17 09:22:01;;;;;;;;;;;;;;;;;;5089690;28;1436;-76
2022/08/17 09:24:28;;;;;;;;;;;;;;;;;;5075083;28;1331;-76
2022/08/17 09:26:57;;;;;;;;;;;;;;;;;;5075206;28;1190;-76
2022/08/17 09:29:25;;;;;;;;;;;;;;;;;;5075830;28;1107;-76
2022/08/17 09:31:53;;;;;;;;;;;;;;;;;;5093503;28;786;-76
2022/08/17 09:34:22;;;;;;;;;;;;;;;;;;5093476;28;1330;-76
2022/08/17 09:36:49;;;;;;;;;;;;;;;;;;5093112;28;1071;-76
2022/08/17 09:39:16;;;;;;;;;;;;;;;;;;5093509;28;1918;-76
2022/08/17 09:41:44;;;;;;;;;;;;;;;;;;5093509;28;814;-76
2022/08/17 09:44:15;;;;;;;;;;;;;;;;;;5080499;28;1290;-76
2022/08/17 09:46:43;;;;;;;;;;;;;;;;;;5072858;28;885;-76
2022/08/17 09:49:13;;;;;;;;;;;;;;;;;;5056784;28;1330;-76
2022/08/17 09:51:40;;;;;;;;;;;;;;;;;;5092910;28;757;-76
2022/08/17 09:54:18;;;;;;;;;;;;;;;;;;5091873;28;1392;-76
2022/08/17 09:56:47;;;;;;;;;;;;;;;;;;5091699;28;909;-76
2022/08/17 09:59:23;;;;;;;;;;;;;;;;;;5091764;28;1980;-76
2022/08/17 10:01:51;;;;;;;;;;;;;;;;;;5076391;28;1334;-76
2022/08/17 10:04:24;;;;;;;;;;;;;;;;;;5071453;28;1428;-76
2022/08/17 10:06:53;;;;;;;;;;;;;;;;;;5071417;28;1063;-76
2022/08/17 10:09:22;;;;;;;;;;;;;;;;;;5071722;28;996;-77
2022/08/17 10:14:35;;;;;;;;;;;;;;;;;;5091583;28;1416;-76
2022/08/17 10:17:02;;;;;;;;;;;;;;;;;;5073314;28;837;-76
2022/08/17 10:19:31;;;;;;;;;;;;;;;;;;5091565;28;1972;-76
2022/08/17 10:27:27;;;;;;;;;;;;;;;;;;5071234;28;972;-76
2022/08/17 10:29:54;;;;;;;;;;;;;;;;;;5070803;28;936;-76
2022/08/17 10:32:24;;;;;;;;;;;;;;;;;;5071223;28;1051;-77
2022/08/17 10:34:55;;;;;;;;;;;;;;;;;;5069896;28;1434;-76
2022/08/17 10:37:40;;;;;;;;;;;;;;;;;;5070867;28;1059;-76
2022/08/17 10:40:14;;;;;;;;;;;;;;;;;;5070749;28;1902;-75
2022/08/17 10:42:44;;;;;;;;;;;;;;;;;;5070640;28;996;-75
2022/08/17 10:45:14;;;;;;;;;;;;;;;;;;5083061;28;1328;-76
2022/08/17 10:48:00;;;;;;;;;;;;;;;;;;5074274;28;1214;-76
2022/08/17 10:50:46;;;;;;;;;;;;;;;;;;5078535;28;1130;-76
2022/08/17 10:56:12;;;;;;;;;;;;;;;;;;5107768;27;1255;-75
2022/08/17 10:58:45;;;;;;;;;;;;;;;;;;5108147;28;1405;-74
2022/08/17 11:01:11;;;;;;;;;;;;;;;;;;5107868;28;1055;-74
2022/08/17 11:03:43;;;;;;;;;;;;;;;;;;5108123;28;1431;-74
2022/08/17 11:06:14;;;;;;;;;;;;;;;;;;5106193;28;1249;-74
2022/08/17 11:08:47;;;;;;;;;;;;;;;;;;5108155;28;1106;-74
2022/08/17 11:11:16;;;;;;;;;;;;;;;;;;5107974;28;846;-76
2022/08/17 11:13:47;;;;;;;;;;;;;;;;;;5107777;28;1910;-75
2022/08/17 11:16:20;;;;;;;;;;;;;;;;;;5106345;28;1242;-76
2022/08/17 11:18:51;;;;;;;;;;;;;;;;;;5106486;28;929;-76
2022/08/17 11:21:38;;;;;;;;;;;;;;;;;;5107194;28;1596;-76
2022/08/17 11:24:15;;;;;;;;;;;;;;;;;;5103963;28;1293;-76
2022/08/17 11:26:45;;;;;;;;;;;;;;;;;;5104525;28;1199;-76
2022/08/17 11:29:19;;;;;;;;;;;;;;;;;;5095028;28;1166;-76
2022/08/17 11:31:46;;;;;;;;;;;;;;;;;;5107026;28;1079;-77
2022/08/17 11:34:17;;;;;;;;;;;;;;;;;;5106708;28;1922;-75
2022/08/17 11:36:56;;;;;;;;;;;;;;;;;;5106566;28;1126;-76
2022/08/17 11:39:29;;;;;;;;;;;;;;;;;;5107009;28;975;-75
2022/08/17 11:41:57;;;;;;;;;;;;;;;;;;5106434;28;1146;-76
2022/08/17 11:44:28;;;;;;;;;;;;;;;;;;5106736;28;1337;-75
2022/08/17 11:52:37;;;;;;;;;;;;;;;;;;5105632;28;869;-76
2022/08/17 11:55:03;;;;;;;;;;;;;;;;;;5119980;28;2356;-76
2022/08/17 11:57:57;;;;;;;;;;;;;;;;;;5128897;28;1083;-76
2022/08/17 12:00:41;;;;;;;;;;;;;;;;;;5127210;28;987;-76
2022/08/17 12:03:26;;;;;;;;;;;;;;;;;;5127017;27;956;-77
2022/08/17 12:06:00;;;;;;;;;;;;;;;;;;5121241;27;1500;-77
2022/08/17 12:08:29;;;;;;;;;;;;;;;;;;5113827;28;1107;-76
2022/08/17 12:10:56;;;;;;;;;;;;;;;;;;5113519;28;1095;-75
2022/08/17 12:13:23;;;;;;;;;;;;;;;;;;5113596;28;706;-75
2022/08/17 12:15:51;;;;;;;;;;;;;;;;;;5112745;28;1914;-76
2022/08/17 12:18:21;;;;;;;;;;;;;;;;;;5111760;28;1466;-76
2022/08/17 12:20:57;;;;;;;;;;;;;;;;;;5093491;28;1501;-76
2022/08/17 12:23:25;;;;;;;;;;;;;;;;;;5092886;28;909;-76
2022/08/17 12:25:55;;;;;;;;;;;;;;;;;;5092789;28;1399;-76
2022/08/17 12:28:22;;;;;;;;;;;;;;;;;;5093061;28;996;-76
2022/08/17 12:30:49;;;;;;;;;;;;;;;;;;5092848;28;917;-76
2022/08/17 12:33:15;;;;;;;;;;;;;;;;;;5092522;28;921;-75
2022/08/17 12:35:42;;;;;;;;;;;;;;;;;;5092449;28;1973;-76
2022/08/17 12:38:09;;;;;;;;;;;;;;;;;;5092473;28;1078;-76
2022/08/17 12:40:36;;;;;;;;;;;;;;;;;;5092674;28;1440;-75
2022/08/17 12:43:03;;;;;;;;;;;;;;;;;;5092385;28;976;-76
2022/08/17 12:45:31;;;;;;;;;;;;;;;;;;5091091;28;1391;-76
2022/08/17 12:48:01;;;;;;;;;;;;;;;;;;5092183;28;1082;-76
2022/08/17 12:50:27;;;;;;;;;;;;;;;;;;5105333;28;1216;-75
2022/08/17 12:52:54;;;;;;;;;;;;;;;;;;5112122;28;1122;-76
2022/08/17 12:55:23;;;;;;;;;;;;;;;;;;5112626;28;1969;-76
2022/08/17 12:57:51;;;;;;;;;;;;;;;;;;5112421;28;1020;-75
2022/08/17 13:00:21;;;;;;;;;;;;;;;;;;5111525;28;1174;-76
2022/08/17 13:02:48;;;;;;;;;;;;;;;;;;5111156;28;973;-75
2022/08/17 13:05:17;;;;;;;;;;;;;;;;;;5112498;28;1301;-76
2022/08/17 13:07:45;;;;;;;;;;;;;;;;;;5110904;28;1139;-76
2022/08/17 13:10:15;;;;;;;;;;;;;;;;;;5112356;28;1118;-76
2022/08/17 13:12:42;;;;;;;;;;;;;;;;;;5112084;27;1129;-76
2022/08/17 13:15:08;;;;;;;;;;;;;;;;;;5112024;28;1922;-77
2022/08/17 13:17:35;;;;;;;;;;;;;;;;;;5112561;28;1358;-77
2022/08/17 13:20:02;;;;;;;;;;;;;;;;;;5113273;28;849;-78
2022/08/17 13:22:29;;;;;;;;;;;;;;;;;;5104776;28;1182;-78
2022/08/17 13:24:56;;;;;;;;;;;;;;;;;;5092942;28;1400;-78
2022/08/17 13:27:23;;;;;;;;;;;;;;;;;;5098006;28;1300;-78
2022/08/17 13:29:52;;;;;;;;;;;;;;;;;;5091353;28;1107;-78
2022/08/17 13:32:21;;;;;;;;;;;;;;;;;;5091727;28;1052;-77
2022/08/17 13:34:48;;;;;;;;;;;;;;;;;;5091576;28;1979;-75
2022/08/17 13:37:32;;;;;;;;;;;;;;;;;;5091491;28;1412;-77
2022/08/17 13:40:01;;;;;;;;;;;;;;;;;;5090514;28;1250;-77
2022/08/17 13:42:37;;;;;;;;;;;;;;;;;;5108807;28;1426;-77
2022/08/17 13:45:12;;;;;;;;;;;;;;;;;;5110378;28;1333;-77
2022/08/17 13:47:40;;;;;;;;;;;;;;;;;;5111386;28;1469;-77
2022/08/17 13:50:06;;;;;;;;;;;;;;;;;;5111773;28;1207;-76
2022/08/17 13:52:34;;;;;;;;;;;;;;;;;;5111508;28;1051;-77
2022/08/17 13:55:00;;;;;;;;;;;;;;;;;;5108439;28;1981;-76
2022/08/17 13:57:26;;;;;;;;;;;;;;;;;;5108731;28;1173;-77
2022/08/17 13:59:54;;;;;;;;;;;;;;;;;;5116420;28;1281;-78
2022/08/17 14:02:23;;;;;;;;;;;;;;;;;;5116993;28;885;-78
2022/08/17 14:04:49;;;;;;;;;;;;;;;;;;5115144;28;1296;-78
2022/08/17 14:07:29;;;;;;;;;;;;;;;;;;5112228;28;1764;-77
2022/08/17 14:09:57;;;;;;;;;;;;;;;;;;5112869;28;1214;-78
2022/08/17 14:12:24;;;;;;;;;;;;;;;;;;5103244;28;1454;-78
2022/08/17 14:14:51;;;;;;;;;;;;;;;;;;5102926;28;1883;-77
2022/08/17 14:17:17;;;;;;;;;;;;;;;;;;5102198;28;1240;-77
2022/08/17 14:19:45;;;;;;;;;;;;;;;;;;5101534;28;1273;-77
2022/08/17 14:22:13;;;;;;;;;;;;;;;;;;5102703;28;1232;-77
2022/08/17 14:24:40;;;;;;;;;;;;;;;;;;5110968;28;1317;-77
2022/08/17 14:27:07;;;;;;;;;;;;;;;;;;5109529;28;1158;-77
2022/08/17 14:29:34;;;;;;;;;;;;;;;;;;5099218;28;1508;-77
2022/08/17 14:32:03;;;;;;;;;;;;;;;;;;5104208;28;1362;-78
2022/08/17 14:34:29;;;;;;;;;;;;;;;;;;5109629;28;1497;-77
2022/08/17 14:36:56;;;;;;;;;;;;;;;;;;5108959;28;1918;-77
2022/08/17 14:39:23;;;;;;;;;;;;;;;;;;5100008;28;1406;-77
2022/08/17 14:41:49;;;;;;;;;;;;;;;;;;5109544;28;1167;-77
2022/08/17 14:44:15;;;;;;;;;;;;;;;;;;5108227;28;1395;-77
2022/08/17 14:46:42;;;;;;;;;;;;;;;;;;5098841;28;1375;-77
2022/08/17 14:49:09;;;;;;;;;;;;;;;;;;5102006;28;1347;-77
2022/08/17 14:51:35;;;;;;;;;;;;;;;;;;5106942;28;1410;-77
2022/08/17 14:54:03;;;;;;;;;;;;;;;;;;5110141;28;1414;-78
2022/08/17 14:56:29;;;;;;;;;;;;;;;;;;5094865;28;1965;-78
2022/08/17 14:58:55;;;;;;;;;;;;;;;;;;5089602;28;1586;-77
2022/08/17 15:01:23;;;;;;;;;;;;;;;;;;5108315;28;1460;-77
2022/08/17 15:03:49;;;;;;;;;;;;;;;;;;5107324;28;1411;-78
2022/08/17 15:06:16;;;;;;;;;;;;;;;;;;5109992;28;1136;-78
2022/08/17 15:08:42;;;;;;;;;;;;;;;;;;5109353;28;1383;-78
2022/08/17 15:11:11;;;;;;;;;;;;;;;;;;5107939;28;1548;-78
2022/08/17 15:13:37;;;;;;;;;;;;;;;;;;5110975;28;1408;-78
2022/08/17 15:16:03;;;;;;;;;;;;;;;;;;5109033;28;1914;-78
2022/08/17 15:18:30;;;;;;;;;;;;;;;;;;5109831;28;1410;-77
2022/08/17 15:20:56;;;;;;;;;;;;;;;;;;5106422;28;1626;-77
2022/08/17 15:23:23;;;;;;;;;;;;;;;;;;5105273;28;1442;-78
2022/08/17 15:25:50;;;;;;;;;;;;;;;;;;5101171;28;1387;-78
2022/08/17 15:28:17;;;;;;;;;;;;;;;;;;5099762;28;1308;-77
2022/08/17 15:30:43;;;;;;;;;;;;;;;;;;5099715;28;1516;-78
2022/08/17 15:33:12;;;;;;;;;;;;;;;;;;5099823;28;1198;-78
2022/08/17 15:35:39;;;;;;;;;;;;;;;;;;5098513;28;1906;-78
2022/08/17 15:38:06;;;;;;;;;;;;;;;;;;5100110;28;1315;-78
2022/08/17 15:40:32;;;;;;;;;;;;;;;;;;5098770;28;1292;-78
2022/08/17 15:42:58;;;;;;;;;;;;;;;;;;5104663;28;1313;-78
2022/08/17 15:45:27;;;;;;;;;;;;;;;;;;5097398;28;1891;-78
2022/08/17 15:47:53;;;;;;;;;;;;;;;;;;5094542;28;1079;-79
2022/08/17 15:50:20;;;;;;;;;;;;;;;;;;5105424;28;1528;-77
2022/08/17 15:52:46;;;;;;;;;;;;;;;;;;5113623;28;1319;-79
2022/08/17 15:55:13;;;;;;;;;;;;;;;;;;5105203;28;1967;-78
2022/08/17 15:57:39;;;;;;;;;;;;;;;;;;5094503;28;1392;-78
2022/08/17 16:00:06;;;;;;;;;;;;;;;;;;5106960;28;1413;-78
2022/08/17 16:02:40;;;;;;;;;;;;;;;;;;5102491;28;1066;-77
2022/08/17 16:05:07;;;;;;;;;;;;;;;;;;5102212;28;1452;-78
2022/08/17 16:07:33;;;;;;;;;;;;;;;;;;5103701;28;1273;-79
2022/08/17 16:09:59;;;;;;;;;;;;;;;;;;5099272;28;1660;-77
2022/08/17 16:12:26;;;;;;;;;;;;;;;;;;5097265;28;1731;-77
2022/08/17 16:14:52;;;;;;;;;;;;;;;;;;5093171;28;1396;-76
2022/08/17 16:17:19;;;;;;;;;;;;;;;;;;5102975;28;1902;-77
2022/08/17 16:19:46;;;;;;;;;;;;;;;;;;5111725;28;1147;-78
2022/08/17 16:22:13;;;;;;;;;;;;;;;;;;5110321;28;1228;-77
2022/08/17 16:24:41;;;;;;;;;;;;;;;;;;5093999;28;1699;-78
2022/08/17 16:27:07;;;;;;;;;;;;;;;;;;5102872;28;1412;-78
2022/08/17 16:29:34;;;;;;;;;;;;;;;;;;5110252;28;1058;-77
2022/08/17 16:32:07;;;;;;;;;;;;;;;;;;5109312;28;1456;-77
2022/08/17 16:34:33;;;;;;;;;;;;;;;;;;5099157;28;1404;-77
2022/08/17 16:37:01;;;;;;;;;;;;;;;;;;5101859;28;1917;-77
2022/08/17 16:39:27;;;;;;;;;;;;;;;;;;5111809;28;1183;-77
2022/08/17 16:41:54;;;;;;;;;;;;;;;;;;5109332;28;1417;-77
2022/08/17 16:44:21;;;;;;;;;;;;;;;;;;5103231;28;1369;-77
2022/08/17 16:46:49;;;;;;;;;;;;;;;;;;5103300;28;1421;-77
2022/08/17 16:49:15;;;;;;;;;;;;;;;;;;5100656;28;1514;-77
2022/08/17 16:51:41;;;;;;;;;;;;;;;;;;5109148;28;1191;-76
2022/08/17 16:54:09;;;;;;;;;;;;;;;;;;5105968;28;1489;-76
2022/08/17 16:56:36;;;;;;;;;;;;;;;;;;5109476;28;1922;-77
2022/08/17 16:59:02;;;;;;;;;;;;;;;;;;5107803;28;1417;-76
2022/08/17 17:01:28;;;;;;;;;;;;;;;;;;5110895;28;1232;-77
2022/08/17 17:03:55;;;;;;;;;;;;;;;;;;5109094;28;1414;-78
2022/08/17 17:06:24;;;;;;;;;;;;;;;;;;5103712;28;1424;-77
2022/08/17 17:08:51;;;;;;;;;;;;;;;;;;5107293;28;1172;-77
2022/08/17 17:11:22;;;;;;;;;;;;;;;;;;5110571;28;1129;-76
2022/08/17 17:13:48;;;;;;;;;;;;;;;;;;5108820;28;1569;-76
2022/08/17 17:16:17;;;;;;;;;;;;;;;;;;5109587;28;1910;-76
2022/08/17 17:18:47;;;;;;;;;;;;;;;;;;5108419;28;1476;-77
2022/08/17 17:21:13;;;;;;;;;;;;;;;;;;5102602;28;1354;-75
2022/08/17 17:23:48;;;;;;;;;;;;;;;;;;5109360;28;1389;-76
2022/08/17 17:26:21;;;;;;;;;;;;;;;;;;5103043;28;1413;-77
2022/08/17 17:28:51;;;;;;;;;;;;;;;;;;5110715;28;1128;-76
2022/08/17 17:31:18;;;;;;;;;;;;;;;;;;5110735;28;995;-76
2022/08/17 17:33:46;;;;;;;;;;;;;;;;;;5106043;28;1568;-76
2022/08/17 17:36:13;;;;;;;;;;;;;;;;;;5107781;28;1971;-76
2022/08/17 17:38:40;;;;;;;;;;;;;;;;;;5097244;27;1374;-76
2022/08/17 17:41:08;;;;;;;;;;;;;;;;;;5101029;28;1558;-75
2022/08/17 17:43:36;;;;;;;;;;;;;;;;;;5100761;28;1386;-76
2022/08/17 17:46:03;;;;;;;;;;;;;;;;;;5106614;28;1548;-76